»·PEaware :: FJS1399 KDEN-KEGE

FJS1399 :: KDEN-KEGE

FLIGHT INFORMATION

Flight Status: Arrived
Operator: Unknown
More flights by this operator :: More flights under this callsign
Pilot: David C. (16084)
Aircraft: ECLIPSE 500
(EA50)
More flights by this aircraft type
Origin: KDEN Denver Intl
United States
Destination: KEGE Eagle Co Regl
United States
More flights between these airports :: More routes between these airports
Route: FOOOT3 RLG
File this flight plan on PilotEdge
Remarks:
Altitude:
(Current/Filed)
22,000ft
Speed:
(Current/Filed)
359kts
Departed: 25-Jul-18 11:26 AM
Arrived: 25-Jul-18 12:02 PM
Distance/Time
Traveled:
104nm/0:35
Distance/Time
To Go:
Arrived

Flight Plot

Page will automatically refresh every two minutes.


Map Options




Map Legend


Flown Route
Filed Route
Departure Airport
Arrival Airport
Navaid (VOR, NDB)
Fix

Horizontal Profiles

Position Reports

Time Latitude Longitude Heading Altitude Ground
Speed
25-Jul-18 10:54 39.838852 -104.665137 0 5434ft 0kts
25-Jul-18 10:55 39.838852 -104.665137 0 5434ft 0kts
25-Jul-18 10:56 39.838852 -104.665137 0 5434ft 0kts
25-Jul-18 10:57 39.838852 -104.665137 0 5434ft 0kts
25-Jul-18 10:58 39.838852 -104.665137 0 5434ft 0kts
25-Jul-18 10:59 39.838852 -104.665137 0 5434ft 0kts
25-Jul-18 11:00 39.838852 -104.665137 0 5434ft 0kts
25-Jul-18 11:01 39.838852 -104.665137 0 5434ft 0kts
25-Jul-18 11:02 39.838852 -104.665137 0 5434ft 0kts
25-Jul-18 11:03 39.838852 -104.665137 0 5434ft 0kts
25-Jul-18 11:04 39.838852 -104.665137 0 5434ft 0kts
25-Jul-18 11:05 39.838852 -104.665137 0 5434ft 0kts
25-Jul-18 11:06 39.838852 -104.665137 0 5434ft 0kts
25-Jul-18 11:07 39.838852 -104.665137 0 5434ft 0kts
25-Jul-18 11:08 39.838852 -104.665137 0 5434ft 0kts
25-Jul-18 11:09 39.838852 -104.665137 0 5434ft 0kts
25-Jul-18 11:10 39.838852 -104.665137 0 5434ft 0kts
25-Jul-18 11:11 39.838852 -104.665137 0 5434ft 0kts
25-Jul-18 11:12 39.838852 -104.665137 0 5434ft 0kts
25-Jul-18 11:13 39.838852 -104.665137 0 5434ft 0kts
25-Jul-18 11:14 39.838852 -104.665137 0 5434ft 0kts
25-Jul-18 11:15 39.838852 -104.665137 0 5434ft 0kts
25-Jul-18 11:16 39.838852 -104.665137 0 5434ft 0kts
25-Jul-18 11:17 39.838852 -104.665137 0 5434ft 0kts
25-Jul-18 11:18 39.838852 -104.665137 0 5434ft 0kts
25-Jul-18 11:19 39.838852 -104.665137 0 5434ft 0kts
25-Jul-18 11:20 39.838852 -104.665137 0 5434ft 0kts
25-Jul-18 11:21 39.839680 -104.664287 50 5434ft 23kts
25-Jul-18 11:22 39.835632 -104.662579 181 5434ft 29kts
25-Jul-18 11:23 39.828881 -104.662518 167 5434ft 20kts
25-Jul-18 11:24 39.828426 -104.661848 88 5434ft 0kts
25-Jul-18 11:25 39.828426 -104.661848 88 5434ft 0kts
25-Jul-18 11:26 39.828940 -104.660458 2 5434ft 9kts
25-Jul-18 11:27 39.845658 -104.660312 0 5495ft 146kts
25-Jul-18 11:28 39.884924 -104.660539 356 7455ft 177kts
25-Jul-18 11:29 39.902203 -104.703636 282 9709ft 189kts
25-Jul-18 11:30 39.912318 -104.755202 288 10009ft 259kts
25-Jul-18 11:31 39.928066 -104.831253 287 10218ft 310kts
25-Jul-18 11:32 39.941306 -104.907568 277 10575ft 284kts
25-Jul-18 11:33 39.945624 -104.983076 278 11018ft 308kts
25-Jul-18 11:34 39.953375 -105.049914 280 12837ft 288kts
25-Jul-18 11:35 39.961932 -105.123975 279 15070ft 266kts
25-Jul-18 11:36 39.970722 -105.200648 280 17604ft 236kts
25-Jul-18 11:37 39.979070 -105.272623 280 19851ft 210kts
25-Jul-18 11:38 39.983891 -105.343536 271 21389ft 213kts
25-Jul-18 11:39 39.982098 -105.417206 270 22368ft 234kts
25-Jul-18 11:40 39.979704 -105.501878 270 22419ft 279kts
25-Jul-18 11:41 39.977271 -105.584556 270 22464ft 304kts
25-Jul-18 11:42 39.975075 -105.658982 269 22483ft 323kts
25-Jul-18 11:43 39.973325 -105.741297 270 22486ft 341kts
25-Jul-18 11:44 39.971437 -105.836178 270 22484ft 353kts
25-Jul-18 11:45 39.974907 -105.923664 275 22483ft 356kts
25-Jul-18 11:46 39.979761 -106.014189 275 22477ft 357kts
25-Jul-18 11:47 39.984817 -106.107942 275 21418ft 326kts
25-Jul-18 11:48 39.989534 -106.195547 275 20204ft 306kts
25-Jul-18 11:49 39.993764 -106.274953 275 19108ft 303kts
25-Jul-18 11:50 39.998236 -106.360062 275 17917ft 299kts
25-Jul-18 11:51 39.974898 -106.438511 211 16968ft 297kts
25-Jul-18 11:52 39.916179 -106.472911 205 15967ft 240kts
25-Jul-18 11:53 39.860404 -106.499775 203 14859ft 231kts
25-Jul-18 11:54 39.803423 -106.523642 200 13902ft 230kts
25-Jul-18 11:55 39.746574 -106.543490 196 12965ft 227kts
25-Jul-18 11:56 39.692965 -106.562639 228 12778ft 192kts
25-Jul-18 11:57 39.683291 -106.627846 263 11917ft 206kts
25-Jul-18 11:58 39.673818 -106.699438 260 10553ft 222kts
25-Jul-18 11:59 39.663132 -106.772694 260 9103ft 167kts
25-Jul-18 12:00 39.656551 -106.817201 260 8234ft 113kts
25-Jul-18 12:01 39.651490 -106.851258 259 7591ft 105kts
25-Jul-18 12:02 39.646203 -106.886462 261 6881ft 107kts
25-Jul-18 12:03 39.642814 -106.916379 262 6548ft 19kts
25-Jul-18 12:04 39.641881 -106.917526 167 6548ft 0kts
25-Jul-18 12:05 39.641999 -106.910950 150 6548ft 16kts

Navigation Log

Ident Type
Flight plan parsing failed, navigation log unavailable